sensor_id;sensor_type;location;lat;lon;timestamp;P1;durP1;ratioP1;P2;durP2;ratioP2
10550;SDS011;5324;50.684;3.862;2023-03-01T00:01:59;8.47;;;7.17;;
10550;SDS011;5324;50.684;3.862;2023-03-01T00:04:26;10.90;;;6.87;;
10550;SDS011;5324;50.684;3.862;2023-03-01T00:06:52;9.03;;;6.23;;
10550;SDS011;5324;50.684;3.862;2023-03-01T00:09:18;9.67;;;6.40;;
10550;SDS011;5324;50.684;3.862;2023-03-01T00:11:44;7.07;;;6.10;;
10550;SDS011;5324;50.684;3.862;2023-03-01T00:14:11;12.17;;;6.10;;
10550;SDS011;5324;50.684;3.862;2023-03-01T00:16:41;7.07;;;6.13;;
10550;SDS011;5324;50.684;3.862;2023-03-01T00:19:09;9.73;;;6.67;;
10550;SDS011;5324;50.684;3.862;2023-03-01T00:21:36;6.30;;;5.70;;
10550;SDS011;5324;50.684;3.862;2023-03-01T00:24:03;8.57;;;6.37;;
10550;SDS011;5324;50.684;3.862;2023-03-01T00:26:29;8.27;;;6.30;;
10550;SDS011;5324;50.684;3.862;2023-03-01T00:28:56;8.43;;;5.77;;
10550;SDS011;5324;50.684;3.862;2023-03-01T00:31:24;8.27;;;6.70;;
10550;SDS011;5324;50.684;3.862;2023-03-01T00:33:53;8.57;;;5.97;;
10550;SDS011;5324;50.684;3.862;2023-03-01T00:36:24;8.57;;;6.37;;
10550;SDS011;5324;50.684;3.862;2023-03-01T00:38:51;8.63;;;6.83;;
10550;SDS011;5324;50.684;3.862;2023-03-01T00:41:17;8.03;;;5.90;;
10550;SDS011;5324;50.684;3.862;2023-03-01T00:43:44;10.10;;;7.00;;
10550;SDS011;5324;50.684;3.862;2023-03-01T00:46:11;9.07;;;7.10;;
10550;SDS011;5324;50.684;3.862;2023-03-01T00:48:37;10.37;;;6.17;;
10550;SDS011;5324;50.684;3.862;2023-03-01T00:51:04;8.17;;;6.43;;
10550;SDS011;5324;50.684;3.862;2023-03-01T00:53:31;9.13;;;7.13;;
10550;SDS011;5324;50.684;3.862;2023-03-01T00:55:57;11.10;;;7.13;;
10550;SDS011;5324;50.684;3.862;2023-03-01T00:58:23;9.80;;;6.87;;
10550;SDS011;5324;50.684;3.862;2023-03-01T01:00:49;9.43;;;7.10;;
10550;SDS011;5324;50.684;3.862;2023-03-01T01:03:17;8.37;;;6.50;;
10550;SDS011;5324;50.684;3.862;2023-03-01T01:05:43;9.90;;;6.87;;
10550;SDS011;5324;50.684;3.862;2023-03-01T01:08:09;8.87;;;6.10;;
10550;SDS011;5324;50.684;3.862;2023-03-01T01:10:35;8.53;;;6.47;;
10550;SDS011;5324;50.684;3.862;2023-03-01T01:13:02;8.10;;;6.10;;
10550;SDS011;5324;50.684;3.862;2023-03-01T01:15:28;9.43;;;6.27;;
10550;SDS011;5324;50.684;3.862;2023-03-01T01:17:54;8.13;;;6.70;;
10550;SDS011;5324;50.684;3.862;2023-03-01T01:20:20;8.40;;;6.53;;
10550;SDS011;5324;50.684;3.862;2023-03-01T01:22:46;9.80;;;6.50;;
10550;SDS011;5324;50.684;3.862;2023-03-01T01:25:12;12.00;;;6.73;;
10550;SDS011;5324;50.684;3.862;2023-03-01T01:27:38;9.30;;;6.40;;
10550;SDS011;5324;50.684;3.862;2023-03-01T01:30:04;9.73;;;6.43;;
10550;SDS011;5324;50.684;3.862;2023-03-01T01:32:30;11.13;;;6.17;;
10550;SDS011;5324;50.684;3.862;2023-03-01T01:34:56;8.17;;;6.13;;
10550;SDS011;5324;50.684;3.862;2023-03-01T01:37:22;7.57;;;6.13;;
10550;SDS011;5324;50.684;3.862;2023-03-01T01:39:56;8.87;;;5.67;;
10550;SDS011;5324;50.684;3.862;2023-03-01T01:42:21;6.40;;;5.37;;
10550;SDS011;5324;50.684;3.862;2023-03-01T01:44:47;9.20;;;5.87;;
10550;SDS011;5324;50.684;3.862;2023-03-01T01:47:18;7.77;;;6.03;;
10550;SDS011;5324;50.684;3.862;2023-03-01T01:49:49;7.97;;;5.60;;
10550;SDS011;5324;50.684;3.862;2023-03-01T01:52:27;6.53;;;4.83;;
10550;SDS011;5324;50.684;3.862;2023-03-01T01:54:57;7.57;;;5.90;;
10550;SDS011;5324;50.684;3.862;2023-03-01T01:57:26;9.03;;;5.80;;
10550;SDS011;5324;50.684;3.862;2023-03-01T01:59:54;8.00;;;6.20;;
10550;SDS011;5324;50.684;3.862;2023-03-01T02:02:22;6.60;;;5.23;;
10550;SDS011;5324;50.684;3.862;2023-03-01T02:04:48;6.93;;;5.27;;
10550;SDS011;5324;50.684;3.862;2023-03-01T02:07:23;8.00;;;5.83;;
10550;SDS011;5324;50.684;3.862;2023-03-01T02:09:50;8.17;;;6.10;;
10550;SDS011;5324;50.684;3.862;2023-03-01T02:12:18;8.27;;;5.80;;
10550;SDS011;5324;50.684;3.862;2023-03-01T02:14:44;7.00;;;5.97;;
10550;SDS011;5324;50.684;3.862;2023-03-01T02:17:11;7.53;;;5.47;;
10550;SDS011;5324;50.684;3.862;2023-03-01T02:19:54;8.17;;;6.00;;
10550;SDS011;5324;50.684;3.862;2023-03-01T02:22:23;8.37;;;5.93;;
10550;SDS011;5324;50.684;3.862;2023-03-01T02:27:40;6.93;;;5.67;;
10550;SDS011;5324;50.684;3.862;2023-03-01T02:30:08;8.13;;;5.57;;
10550;SDS011;5324;50.684;3.862;2023-03-01T02:32:37;7.90;;;6.27;;
10550;SDS011;5324;50.684;3.862;2023-03-01T02:35:03;8.50;;;5.87;;
10550;SDS011;5324;50.684;3.862;2023-03-01T02:37:31;9.23;;;5.97;;
10550;SDS011;5324;50.684;3.862;2023-03-01T02:39:58;8.87;;;6.53;;
10550;SDS011;5324;50.684;3.862;2023-03-01T02:42:31;8.13;;;6.00;;
10550;SDS011;5324;50.684;3.862;2023-03-01T02:44:58;8.57;;;5.63;;
10550;SDS011;5324;50.684;3.862;2023-03-01T02:47:24;8.47;;;6.47;;
10550;SDS011;5324;50.684;3.862;2023-03-01T02:49:50;7.47;;;5.73;;
10550;SDS011;5324;50.684;3.862;2023-03-01T02:54:50;11.77;;;6.30;;
10550;SDS011;5324;50.684;3.862;2023-03-01T02:57:17;10.10;;;6.20;;
10550;SDS011;5324;50.684;3.862;2023-03-01T02:59:43;7.77;;;5.60;;
10550;SDS011;5324;50.684;3.862;2023-03-01T03:02:19;7.67;;;6.27;;
10550;SDS011;5324;50.684;3.862;2023-03-01T03:04:47;8.77;;;6.20;;
10550;SDS011;5324;50.684;3.862;2023-03-01T03:07:13;8.17;;;6.03;;
10550;SDS011;5324;50.684;3.862;2023-03-01T03:09:39;9.00;;;6.13;;
10550;SDS011;5324;50.684;3.862;2023-03-01T03:12:05;9.43;;;6.07;;
10550;SDS011;5324;50.684;3.862;2023-03-01T03:14:31;7.13;;;5.90;;
10550;SDS011;5324;50.684;3.862;2023-03-01T03:16:59;7.37;;;6.00;;
10550;SDS011;5324;50.684;3.862;2023-03-01T03:19:25;6.23;;;5.60;;
10550;SDS011;5324;50.684;3.862;2023-03-01T03:21:51;8.00;;;6.23;;
10550;SDS011;5324;50.684;3.862;2023-03-01T03:24:17;7.57;;;6.07;;
10550;SDS011;5324;50.684;3.862;2023-03-01T03:26:43;6.47;;;5.60;;
10550;SDS011;5324;50.684;3.862;2023-03-01T03:29:09;9.70;;;6.37;;
10550;SDS011;5324;50.684;3.862;2023-03-01T03:31:35;9.27;;;5.80;;
10550;SDS011;5324;50.684;3.862;2023-03-01T03:34:01;9.70;;;7.07;;
10550;SDS011;5324;50.684;3.862;2023-03-01T03:36:27;8.40;;;6.10;;
10550;SDS011;5324;50.684;3.862;2023-03-01T03:38:53;10.27;;;5.93;;
10550;SDS011;5324;50.684;3.862;2023-03-01T03:41:19;7.17;;;6.03;;
10550;SDS011;5324;50.684;3.862;2023-03-01T03:43:45;6.83;;;5.73;;
10550;SDS011;5324;50.684;3.862;2023-03-01T03:46:11;11.63;;;6.47;;
10550;SDS011;5324;50.684;3.862;2023-03-01T03:48:42;8.77;;;6.03;;
10550;SDS011;5324;50.684;3.862;2023-03-01T03:51:12;7.90;;;6.07;;
10550;SDS011;5324;50.684;3.862;2023-03-01T03:53:39;8.13;;;6.20;;
10550;SDS011;5324;50.684;3.862;2023-03-01T03:56:05;6.97;;;6.10;;
10550;SDS011;5324;50.684;3.862;2023-03-01T03:58:31;12.27;;;5.93;;
10550;SDS011;5324;50.684;3.862;2023-03-01T04:00:57;8.37;;;6.13;;
10550;SDS011;5324;50.684;3.862;2023-03-01T04:03:24;8.70;;;6.50;;
10550;SDS011;5324;50.684;3.862;2023-03-01T04:05:50;8.73;;;6.10;;
10550;SDS011;5324;50.684;3.862;2023-03-01T04:08:17;8.70;;;6.33;;
10550;SDS011;5324;50.684;3.862;2023-03-01T04:10:46;7.67;;;6.13;;
10550;SDS011;5324;50.684;3.862;2023-03-01T04:13:13;8.30;;;6.47;;
10550;SDS011;5324;50.684;3.862;2023-03-01T04:15:40;7.80;;;5.90;;
10550;SDS011;5324;50.684;3.862;2023-03-01T04:18:08;7.60;;;5.83;;
10550;SDS011;5324;50.684;3.862;2023-03-01T04:20:34;7.87;;;5.80;;
10550;SDS011;5324;50.684;3.862;2023-03-01T04:23:05;8.37;;;6.17;;
10550;SDS011;5324;50.684;3.862;2023-03-01T04:25:51;13.70;;;6.30;;
10550;SDS011;5324;50.684;3.862;2023-03-01T04:28:38;7.67;;;5.90;;
10550;SDS011;5324;50.684;3.862;2023-03-01T04:31:06;11.23;;;6.40;;
10550;SDS011;5324;50.684;3.862;2023-03-01T04:33:44;11.83;;;6.67;;
10550;SDS011;5324;50.684;3.862;2023-03-01T04:36:10;8.50;;;6.40;;
10550;SDS011;5324;50.684;3.862;2023-03-01T04:38:38;7.77;;;6.27;;
10550;SDS011;5324;50.684;3.862;2023-03-01T04:41:05;8.57;;;6.03;;
10550;SDS011;5324;50.684;3.862;2023-03-01T04:43:31;9.30;;;6.33;;
10550;SDS011;5324;50.684;3.862;2023-03-01T04:46:06;9.40;;;5.73;;
10550;SDS011;5324;50.684;3.862;2023-03-01T04:48:34;7.50;;;6.60;;
10550;SDS011;5324;50.684;3.862;2023-03-01T04:51:00;10.70;;;6.70;;
10550;SDS011;5324;50.684;3.862;2023-03-01T04:53:27;9.07;;;6.43;;
10550;SDS011;5324;50.684;3.862;2023-03-01T04:55:56;10.30;;;6.27;;
10550;SDS011;5324;50.684;3.862;2023-03-01T04:58:26;11.20;;;6.47;;
10550;SDS011;5324;50.684;3.862;2023-03-01T05:00:52;8.07;;;6.37;;
10550;SDS011;5324;50.684;3.862;2023-03-01T05:03:18;8.60;;;6.17;;
10550;SDS011;5324;50.684;3.862;2023-03-01T05:05:46;8.77;;;6.73;;
10550;SDS011;5324;50.684;3.862;2023-03-01T05:08:12;9.20;;;5.87;;
10550;SDS011;5324;50.684;3.862;2023-03-01T05:10:47;12.53;;;6.97;;
10550;SDS011;5324;50.684;3.862;2023-03-01T05:13:14;8.47;;;5.90;;
10550;SDS011;5324;50.684;3.862;2023-03-01T05:15:53;9.07;;;6.60;;
10550;SDS011;5324;50.684;3.862;2023-03-01T05:18:20;8.70;;;6.20;;
10550;SDS011;5324;50.684;3.862;2023-03-01T05:20:50;6.90;;;6.17;;
10550;SDS011;5324;50.684;3.862;2023-03-01T05:23:16;8.70;;;5.90;;
10550;SDS011;5324;50.684;3.862;2023-03-01T05:25:46;9.27;;;6.33;;
10550;SDS011;5324;50.684;3.862;2023-03-01T05:28:13;6.97;;;5.73;;
10550;SDS011;5324;50.684;3.862;2023-03-01T05:30:39;8.57;;;5.90;;
10550;SDS011;5324;50.684;3.862;2023-03-01T05:33:05;12.20;;;6.07;;
10550;SDS011;5324;50.684;3.862;2023-03-01T05:35:35;8.93;;;6.23;;
10550;SDS011;5324;50.684;3.862;2023-03-01T05:38:01;9.20;;;5.70;;
10550;SDS011;5324;50.684;3.862;2023-03-01T05:40:27;8.87;;;5.87;;
10550;SDS011;5324;50.684;3.862;2023-03-01T05:42:54;6.83;;;5.57;;
10550;SDS011;5324;50.684;3.862;2023-03-01T05:45:23;8.00;;;6.17;;
10550;SDS011;5324;50.684;3.862;2023-03-01T05:47:50;10.23;;;6.90;;
10550;SDS011;5324;50.684;3.862;2023-03-01T05:50:18;9.50;;;6.30;;
10550;SDS011;5324;50.684;3.862;2023-03-01T05:52:51;7.80;;;6.33;;
10550;SDS011;5324;50.684;3.862;2023-03-01T05:55:18;11.83;;;6.43;;
10550;SDS011;5324;50.684;3.862;2023-03-01T05:57:45;8.63;;;6.40;;
10550;SDS011;5324;50.684;3.862;2023-03-01T06:00:12;10.77;;;6.10;;
10550;SDS011;5324;50.684;3.862;2023-03-01T06:02:38;7.43;;;5.90;;
10550;SDS011;5324;50.684;3.862;2023-03-01T06:05:05;8.90;;;6.30;;
10550;SDS011;5324;50.684;3.862;2023-03-01T06:07:31;8.23;;;6.30;;
10550;SDS011;5324;50.684;3.862;2023-03-01T06:09:58;9.20;;;5.67;;
10550;SDS011;5324;50.684;3.862;2023-03-01T06:12:24;8.70;;;6.53;;
10550;SDS011;5324;50.684;3.862;2023-03-01T06:14:50;9.33;;;6.77;;
10550;SDS011;5324;50.684;3.862;2023-03-01T06:17:15;12.63;;;7.27;;
10550;SDS011;5324;50.684;3.862;2023-03-01T06:19:41;9.00;;;6.43;;
10550;SDS011;5324;50.684;3.862;2023-03-01T06:22:07;9.17;;;6.20;;
10550;SDS011;5324;50.684;3.862;2023-03-01T06:24:34;8.27;;;6.17;;
10550;SDS011;5324;50.684;3.862;2023-03-01T06:27:00;8.10;;;6.23;;
10550;SDS011;5324;50.684;3.862;2023-03-01T06:29:26;9.60;;;7.00;;
10550;SDS011;5324;50.684;3.862;2023-03-01T06:31:52;7.30;;;5.93;;
10550;SDS011;5324;50.684;3.862;2023-03-01T06:34:18;7.20;;;5.90;;
10550;SDS011;5324;50.684;3.862;2023-03-01T06:36:46;7.93;;;6.37;;
10550;SDS011;5324;50.684;3.862;2023-03-01T06:39:12;8.70;;;6.20;;
10550;SDS011;5324;50.684;3.862;2023-03-01T06:41:38;8.07;;;6.63;;
10550;SDS011;5324;50.684;3.862;2023-03-01T06:44:04;8.00;;;6.47;;
10550;SDS011;5324;50.684;3.862;2023-03-01T06:46:30;10.67;;;6.70;;
10550;SDS011;5324;50.684;3.862;2023-03-01T06:48:56;11.97;;;6.53;;
10550;SDS011;5324;50.684;3.862;2023-03-01T06:51:22;10.57;;;6.80;;
10550;SDS011;5324;50.684;3.862;2023-03-01T06:53:48;8.87;;;6.43;;
10550;SDS011;5324;50.684;3.862;2023-03-01T06:56:14;9.17;;;6.70;;
10550;SDS011;5324;50.684;3.862;2023-03-01T06:58:40;8.50;;;6.57;;
10550;SDS011;5324;50.684;3.862;2023-03-01T07:01:07;9.13;;;6.20;;
10550;SDS011;5324;50.684;3.862;2023-03-01T07:03:33;7.83;;;6.30;;
10550;SDS011;5324;50.684;3.862;2023-03-01T07:05:59;9.27;;;6.93;;
10550;SDS011;5324;50.684;3.862;2023-03-01T07:08:25;9.17;;;6.47;;
10550;SDS011;5324;50.684;3.862;2023-03-01T07:10:55;8.47;;;5.90;;
10550;SDS011;5324;50.684;3.862;2023-03-01T07:13:21;9.73;;;6.87;;
10550;SDS011;5324;50.684;3.862;2023-03-01T07:15:47;7.47;;;6.37;;
10550;SDS011;5324;50.684;3.862;2023-03-01T07:18:13;10.27;;;6.43;;
10550;SDS011;5324;50.684;3.862;2023-03-01T07:20:39;8.57;;;5.93;;
10550;SDS011;5324;50.684;3.862;2023-03-01T07:23:06;7.30;;;6.50;;
10550;SDS011;5324;50.684;3.862;2023-03-01T07:25:32;12.73;;;6.90;;
10550;SDS011;5324;50.684;3.862;2023-03-01T07:27:58;8.73;;;6.47;;
10550;SDS011;5324;50.684;3.862;2023-03-01T07:30:24;11.17;;;7.00;;
10550;SDS011;5324;50.684;3.862;2023-03-01T07:32:53;12.87;;;6.93;;
10550;SDS011;5324;50.684;3.862;2023-03-01T07:35:19;10.57;;;6.83;;
10550;SDS011;5324;50.684;3.862;2023-03-01T07:37:45;11.80;;;7.03;;
10550;SDS011;5324;50.684;3.862;2023-03-01T07:40:11;7.50;;;6.73;;
10550;SDS011;5324;50.684;3.862;2023-03-01T07:42:37;9.80;;;7.20;;
10550;SDS011;5324;50.684;3.862;2023-03-01T07:45:04;9.83;;;6.73;;
10550;SDS011;5324;50.684;3.862;2023-03-01T07:47:31;10.57;;;6.80;;
10550;SDS011;5324;50.684;3.862;2023-03-01T07:49:57;10.87;;;7.17;;
10550;SDS011;5324;50.684;3.862;2023-03-01T07:52:23;9.90;;;7.17;;
10550;SDS011;5324;50.684;3.862;2023-03-01T07:54:49;11.53;;;7.07;;
10550;SDS011;5324;50.684;3.862;2023-03-01T07:57:15;8.93;;;6.17;;
10550;SDS011;5324;50.684;3.862;2023-03-01T07:59:41;8.33;;;6.40;;
10550;SDS011;5324;50.684;3.862;2023-03-01T08:02:08;7.93;;;6.60;;
10550;SDS011;5324;50.684;3.862;2023-03-01T08:04:34;8.53;;;6.67;;
10550;SDS011;5324;50.684;3.862;2023-03-01T08:07:00;8.37;;;6.17;;
10550;SDS011;5324;50.684;3.862;2023-03-01T08:09:26;11.53;;;6.47;;
10550;SDS011;5324;50.684;3.862;2023-03-01T08:11:52;8.57;;;7.03;;
10550;SDS011;5324;50.684;3.862;2023-03-01T08:14:19;9.60;;;6.90;;
10550;SDS011;5324;50.684;3.862;2023-03-01T08:16:45;8.73;;;6.97;;
10550;SDS011;5324;50.684;3.862;2023-03-01T08:19:14;9.77;;;6.83;;
10550;SDS011;5324;50.684;3.862;2023-03-01T08:21:40;7.57;;;6.43;;
10550;SDS011;5324;50.684;3.862;2023-03-01T08:24:06;8.93;;;7.00;;
10550;SDS011;5324;50.684;3.862;2023-03-01T08:26:33;9.90;;;6.90;;
10550;SDS011;5324;50.684;3.862;2023-03-01T08:28:59;10.63;;;6.77;;
10550;SDS011;5324;50.684;3.862;2023-03-01T08:33:53;9.37;;;7.37;;
10550;SDS011;5324;50.684;3.862;2023-03-01T08:36:30;9.60;;;7.37;;
10550;SDS011;5324;50.684;3.862;2023-03-01T08:38:56;10.20;;;7.40;;
10550;SDS011;5324;50.684;3.862;2023-03-01T08:41:22;9.80;;;7.47;;
10550;SDS011;5324;50.684;3.862;2023-03-01T08:43:48;10.17;;;7.87;;
10550;SDS011;5324;50.684;3.862;2023-03-01T08:46:15;10.97;;;7.73;;
10550;SDS011;5324;50.684;3.862;2023-03-01T08:48:41;9.63;;;6.67;;
10550;SDS011;5324;50.684;3.862;2023-03-01T08:51:13;9.80;;;7.60;;
10550;SDS011;5324;50.684;3.862;2023-03-01T08:53:40;10.63;;;8.13;;
10550;SDS011;5324;50.684;3.862;2023-03-01T08:56:06;10.70;;;7.27;;
10550;SDS011;5324;50.684;3.862;2023-03-01T08:58:32;9.43;;;7.60;;
10550;SDS011;5324;50.684;3.862;2023-03-01T09:00:59;9.33;;;7.37;;
10550;SDS011;5324;50.684;3.862;2023-03-01T09:03:25;9.17;;;7.73;;
10550;SDS011;5324;50.684;3.862;2023-03-01T09:05:51;10.37;;;7.47;;
10550;SDS011;5324;50.684;3.862;2023-03-01T09:08:18;9.27;;;7.20;;
10550;SDS011;5324;50.684;3.862;2023-03-01T09:10:44;9.87;;;7.37;;
10550;SDS011;5324;50.684;3.862;2023-03-01T09:13:10;12.40;;;8.40;;
10550;SDS011;5324;50.684;3.862;2023-03-01T09:15:37;9.13;;;7.23;;
10550;SDS011;5324;50.684;3.862;2023-03-01T09:18:03;10.60;;;7.73;;
10550;SDS011;5324;50.684;3.862;2023-03-01T09:20:29;12.30;;;7.23;;
10550;SDS011;5324;50.684;3.862;2023-03-01T09:22:56;10.07;;;7.60;;
10550;SDS011;5324;50.684;3.862;2023-03-01T09:25:22;8.80;;;7.23;;
10550;SDS011;5324;50.684;3.862;2023-03-01T09:27:50;9.67;;;7.60;;
10550;SDS011;5324;50.684;3.862;2023-03-01T09:30:16;10.63;;;7.63;;
10550;SDS011;5324;50.684;3.862;2023-03-01T09:32:43;11.73;;;7.33;;
10550;SDS011;5324;50.684;3.862;2023-03-01T09:35:09;8.93;;;6.77;;
10550;SDS011;5324;50.684;3.862;2023-03-01T09:37:36;14.87;;;8.27;;
10550;SDS011;5324;50.684;3.862;2023-03-01T09:40:03;11.27;;;7.70;;
10550;SDS011;5324;50.684;3.862;2023-03-01T09:42:31;11.17;;;7.03;;
10550;SDS011;5324;50.684;3.862;2023-03-01T09:44:59;9.27;;;7.10;;
10550;SDS011;5324;50.684;3.862;2023-03-01T09:47:27;10.23;;;7.83;;
10550;SDS011;5324;50.684;3.862;2023-03-01T09:50:02;9.17;;;7.37;;
10550;SDS011;5324;50.684;3.862;2023-03-01T09:52:47;12.00;;;7.70;;
10550;SDS011;5324;50.684;3.862;2023-03-01T09:55:17;9.27;;;7.33;;
10550;SDS011;5324;50.684;3.862;2023-03-01T09:57:50;10.70;;;8.03;;
10550;SDS011;5324;50.684;3.862;2023-03-01T10:00:26;12.57;;;7.33;;
10550;SDS011;5324;50.684;3.862;2023-03-01T10:03:01;10.17;;;7.47;;
10550;SDS011;5324;50.684;3.862;2023-03-01T10:07:58;10.37;;;7.03;;
10550;SDS011;5324;50.684;3.862;2023-03-01T10:10:29;11.10;;;7.87;;
10550;SDS011;5324;50.684;3.862;2023-03-01T10:12:58;10.07;;;7.27;;
10550;SDS011;5324;50.684;3.862;2023-03-01T10:15:30;9.77;;;6.60;;
10550;SDS011;5324;50.684;3.862;2023-03-01T10:18:00;10.73;;;7.20;;
10550;SDS011;5324;50.684;3.862;2023-03-01T10:20:45;10.63;;;7.83;;
10550;SDS011;5324;50.684;3.862;2023-03-01T10:23:12;9.40;;;7.37;;
10550;SDS011;5324;50.684;3.862;2023-03-01T10:28:06;15.53;;;10.03;;
10550;SDS011;5324;50.684;3.862;2023-03-01T10:30:36;14.20;;;8.50;;
10550;SDS011;5324;50.684;3.862;2023-03-01T10:33:06;14.83;;;9.10;;
10550;SDS011;5324;50.684;3.862;2023-03-01T10:35:38;12.97;;;7.87;;
10550;SDS011;5324;50.684;3.862;2023-03-01T10:38:10;10.27;;;8.03;;
10550;SDS011;5324;50.684;3.862;2023-03-01T10:43:10;8.83;;;7.70;;
10550;SDS011;5324;50.684;3.862;2023-03-01T10:45:37;10.07;;;7.47;;
10550;SDS011;5324;50.684;3.862;2023-03-01T10:50:32;12.60;;;8.27;;
10550;SDS011;5324;50.684;3.862;2023-03-01T10:52:59;12.00;;;8.07;;
10550;SDS011;5324;50.684;3.862;2023-03-01T10:55:31;10.60;;;7.57;;
10550;SDS011;5324;50.684;3.862;2023-03-01T10:58:06;11.77;;;8.30;;
10550;SDS011;5324;50.684;3.862;2023-03-01T11:00:33;12.10;;;8.13;;
10550;SDS011;5324;50.684;3.862;2023-03-01T11:03:11;14.87;;;8.40;;
10550;SDS011;5324;50.684;3.862;2023-03-01T11:05:49;9.93;;;7.07;;
10550;SDS011;5324;50.684;3.862;2023-03-01T11:08:25;9.80;;;7.70;;
10550;SDS011;5324;50.684;3.862;2023-03-01T11:11:03;11.50;;;7.43;;
10550;SDS011;5324;50.684;3.862;2023-03-01T11:13:29;12.03;;;7.50;;
10550;SDS011;5324;50.684;3.862;2023-03-01T11:15:59;11.60;;;7.63;;
10550;SDS011;5324;50.684;3.862;2023-03-01T11:18:26;10.70;;;8.00;;
10550;SDS011;5324;50.684;3.862;2023-03-01T11:20:56;12.60;;;7.77;;
10550;SDS011;5324;50.684;3.862;2023-03-01T11:23:24;9.73;;;7.90;;
10550;SDS011;5324;50.684;3.862;2023-03-01T11:25:54;11.47;;;7.70;;
10550;SDS011;5324;50.684;3.862;2023-03-01T11:28:22;12.03;;;7.80;;
10550;SDS011;5324;50.684;3.862;2023-03-01T11:33:29;9.47;;;7.47;;
10550;SDS011;5324;50.684;3.862;2023-03-01T11:36:01;9.43;;;7.97;;
10550;SDS011;5324;50.684;3.862;2023-03-01T11:38:30;9.00;;;7.27;;
10550;SDS011;5324;50.684;3.862;2023-03-01T11:41:10;12.00;;;7.87;;
10550;SDS011;5324;50.684;3.862;2023-03-01T11:43:52;9.80;;;7.27;;
10550;SDS011;5324;50.684;3.862;2023-03-01T11:49:01;10.73;;;7.93;;
10550;SDS011;5324;50.684;3.862;2023-03-01T11:56:43;8.70;;;6.90;;
10550;SDS011;5324;50.684;3.862;2023-03-01T12:02:10;12.17;;;8.27;;
10550;SDS011;5324;50.684;3.862;2023-03-01T12:07:46;11.17;;;6.97;;
10550;SDS011;5324;50.684;3.862;2023-03-01T12:26:39;11.63;;;7.97;;
10550;SDS011;5324;50.684;3.862;2023-03-01T12:39:17;9.20;;;6.87;;
10550;SDS011;5324;50.684;3.862;2023-03-01T12:44:35;7.93;;;6.37;;
10550;SDS011;5324;50.684;3.862;2023-03-01T12:49:30;10.60;;;7.03;;
10550;SDS011;5324;50.684;3.862;2023-03-01T12:52:02;9.20;;;6.37;;
10550;SDS011;5324;50.684;3.862;2023-03-01T12:54:30;8.37;;;6.33;;
10550;SDS011;5324;50.684;3.862;2023-03-01T12:56:57;9.10;;;7.27;;
10550;SDS011;5324;50.684;3.862;2023-03-01T12:59:35;8.27;;;7.10;;
10550;SDS011;5324;50.684;3.862;2023-03-01T13:09:51;7.53;;;6.27;;
10550;SDS011;5324;50.684;3.862;2023-03-01T13:15:16;9.00;;;6.73;;
10550;SDS011;5324;50.684;3.862;2023-03-01T13:18:00;10.10;;;6.47;;
10550;SDS011;5324;50.684;3.862;2023-03-01T13:20:34;8.97;;;5.87;;
10550;SDS011;5324;50.684;3.862;2023-03-01T13:23:47;8.57;;;7.00;;
10550;SDS011;5324;50.684;3.862;2023-03-01T13:31:02;8.83;;;6.07;;
10550;SDS011;5324;50.684;3.862;2023-03-01T13:35:55;8.50;;;6.13;;
10550;SDS011;5324;50.684;3.862;2023-03-01T13:41:16;10.53;;;6.57;;
10550;SDS011;5324;50.684;3.862;2023-03-01T13:43:43;6.63;;;5.93;;
10550;SDS011;5324;50.684;3.862;2023-03-01T13:46:22;9.13;;;6.30;;
10550;SDS011;5324;50.684;3.862;2023-03-01T13:48:53;8.57;;;6.80;;
10550;SDS011;5324;50.684;3.862;2023-03-01T13:51:25;7.47;;;5.67;;
10550;SDS011;5324;50.684;3.862;2023-03-01T13:53:51;8.67;;;6.43;;
10550;SDS011;5324;50.684;3.862;2023-03-01T13:58:58;7.83;;;6.33;;
10550;SDS011;5324;50.684;3.862;2023-03-01T14:01:26;7.87;;;6.10;;
10550;SDS011;5324;50.684;3.862;2023-03-01T14:03:53;8.43;;;6.40;;
10550;SDS011;5324;50.684;3.862;2023-03-01T14:06:21;7.93;;;5.90;;
10550;SDS011;5324;50.684;3.862;2023-03-01T14:08:48;12.03;;;6.30;;
10550;SDS011;5324;50.684;3.862;2023-03-01T14:16:58;9.70;;;6.47;;
10550;SDS011;5324;50.684;3.862;2023-03-01T14:19:09;7.77;;;5.80;;
10550;SDS011;5324;50.684;3.862;2023-03-01T14:21:38;8.63;;;6.33;;
10550;SDS011;5324;50.684;3.862;2023-03-01T14:24:05;8.87;;;6.33;;
10550;SDS011;5324;50.684;3.862;2023-03-01T14:26:31;9.37;;;7.30;;
10550;SDS011;5324;50.684;3.862;2023-03-01T14:28:59;9.17;;;6.77;;
10550;SDS011;5324;50.684;3.862;2023-03-01T14:31:32;7.63;;;6.43;;
10550;SDS011;5324;50.684;3.862;2023-03-01T14:33:59;9.57;;;6.33;;
10550;SDS011;5324;50.684;3.862;2023-03-01T14:36:27;8.37;;;6.10;;
10550;SDS011;5324;50.684;3.862;2023-03-01T14:38:53;8.60;;;6.30;;
10550;SDS011;5324;50.684;3.862;2023-03-01T14:41:23;8.40;;;6.40;;
10550;SDS011;5324;50.684;3.862;2023-03-01T14:43:50;7.87;;;6.27;;
10550;SDS011;5324;50.684;3.862;2023-03-01T14:46:18;8.03;;;6.33;;
10550;SDS011;5324;50.684;3.862;2023-03-01T14:48:47;9.17;;;6.17;;
10550;SDS011;5324;50.684;3.862;2023-03-01T14:51:14;7.73;;;5.50;;
10550;SDS011;5324;50.684;3.862;2023-03-01T14:53:39;11.13;;;5.70;;
10550;SDS011;5324;50.684;3.862;2023-03-01T14:56:12;8.43;;;5.67;;
10550;SDS011;5324;50.684;3.862;2023-03-01T14:58:39;8.70;;;6.17;;
10550;SDS011;5324;50.684;3.862;2023-03-01T15:01:05;7.30;;;6.30;;
10550;SDS011;5324;50.684;3.862;2023-03-01T15:06:28;6.87;;;5.80;;
10550;SDS011;5324;50.684;3.862;2023-03-01T15:08:54;8.33;;;5.40;;
10550;SDS011;5324;50.684;3.862;2023-03-01T15:11:31;7.40;;;5.83;;
10550;SDS011;5324;50.684;3.862;2023-03-01T15:13:58;7.80;;;6.43;;
10550;SDS011;5324;50.684;3.862;2023-03-01T15:16:25;9.27;;;6.37;;
10550;SDS011;5324;50.684;3.862;2023-03-01T15:21:22;9.00;;;6.13;;
10550;SDS011;5324;50.684;3.862;2023-03-01T15:23:50;7.90;;;6.37;;
10550;SDS011;5324;50.684;3.862;2023-03-01T15:26:23;13.20;;;8.47;;
10550;SDS011;5324;50.684;3.862;2023-03-01T15:28:51;8.10;;;6.23;;
10550;SDS011;5324;50.684;3.862;2023-03-01T15:31:21;9.97;;;6.17;;
10550;SDS011;5324;50.684;3.862;2023-03-01T15:33:47;9.57;;;6.10;;
10550;SDS011;5324;50.684;3.862;2023-03-01T15:36:30;8.37;;;5.90;;
10550;SDS011;5324;50.684;3.862;2023-03-01T15:38:57;7.90;;;6.47;;
10550;SDS011;5324;50.684;3.862;2023-03-01T15:41:31;8.50;;;6.80;;
10550;SDS011;5324;50.684;3.862;2023-03-01T15:44:14;9.43;;;7.73;;
10550;SDS011;5324;50.684;3.862;2023-03-01T15:46:40;9.47;;;6.53;;
10550;SDS011;5324;50.684;3.862;2023-03-01T15:49:28;7.60;;;5.50;;
10550;SDS011;5324;50.684;3.862;2023-03-01T15:51:56;8.70;;;6.70;;
10550;SDS011;5324;50.684;3.862;2023-03-01T15:54:23;9.40;;;6.30;;
10550;SDS011;5324;50.684;3.862;2023-03-01T15:56:50;7.23;;;6.10;;
10550;SDS011;5324;50.684;3.862;2023-03-01T15:59:16;13.07;;;6.40;;
10550;SDS011;5324;50.684;3.862;2023-03-01T16:01:43;10.07;;;6.97;;
10550;SDS011;5324;50.684;3.862;2023-03-01T16:04:13;9.73;;;6.77;;
10550;SDS011;5324;50.684;3.862;2023-03-01T16:06:45;7.87;;;6.20;;
10550;SDS011;5324;50.684;3.862;2023-03-01T16:09:12;9.67;;;6.00;;
10550;SDS011;5324;50.684;3.862;2023-03-01T16:11:38;9.67;;;6.30;;
10550;SDS011;5324;50.684;3.862;2023-03-01T16:14:05;8.83;;;6.13;;
10550;SDS011;5324;50.684;3.862;2023-03-01T16:16:31;9.73;;;6.63;;
10550;SDS011;5324;50.684;3.862;2023-03-01T16:18:57;7.90;;;6.40;;
10550;SDS011;5324;50.684;3.862;2023-03-01T16:21:23;7.67;;;5.87;;
10550;SDS011;5324;50.684;3.862;2023-03-01T16:23:50;7.50;;;6.33;;
10550;SDS011;5324;50.684;3.862;2023-03-01T16:26:17;6.63;;;5.93;;
10550;SDS011;5324;50.684;3.862;2023-03-01T16:28:43;8.60;;;6.50;;
10550;SDS011;5324;50.684;3.862;2023-03-01T16:31:10;8.97;;;6.30;;
10550;SDS011;5324;50.684;3.862;2023-03-01T16:33:36;8.27;;;6.17;;
10550;SDS011;5324;50.684;3.862;2023-03-01T16:36:06;8.93;;;6.07;;
10550;SDS011;5324;50.684;3.862;2023-03-01T16:38:32;7.30;;;6.17;;
10550;SDS011;5324;50.684;3.862;2023-03-01T16:40:59;7.67;;;6.43;;
10550;SDS011;5324;50.684;3.862;2023-03-01T16:43:25;8.60;;;6.73;;
10550;SDS011;5324;50.684;3.862;2023-03-01T16:45:52;7.70;;;6.07;;